createdAt,value
2019-02-23T00:02:19.730Z,12.97
2019-02-23T00:08:14.733Z,13.58
2019-02-23T00:14:09.732Z,14.73
2019-02-23T00:20:04.749Z,15.79
2019-02-23T00:25:59.724Z,13.44
2019-02-23T00:31:54.739Z,11.75
2019-02-23T00:37:49.746Z,11
2019-02-23T00:43:44.806Z,11.68
2019-02-23T00:49:39.747Z,11.4
2019-02-23T00:55:34.793Z,12
2019-02-23T01:01:29.794Z,12.78
2019-02-23T01:07:24.784Z,12.67
2019-02-23T01:13:19.794Z,14.51
2019-02-23T01:19:14.805Z,14.27
2019-02-23T01:25:09.807Z,14.7
2019-02-23T01:31:04.816Z,14.56
2019-02-23T01:36:59.825Z,16.02
2019-02-23T01:42:54.822Z,14.53
2019-02-23T01:48:49.825Z,15.83
2019-02-23T01:54:44.818Z,16.1
2019-02-23T02:00:39.847Z,15.97
2019-02-23T02:06:34.826Z,17.1
2019-02-23T02:12:29.851Z,16.71
2019-02-23T02:18:24.900Z,17.47
2019-02-23T02:24:19.928Z,16.47
2019-02-23T02:30:14.872Z,20.15
2019-02-23T02:36:09.877Z,41.38
2019-02-23T02:42:04.871Z,36.52
2019-02-23T02:47:59.856Z,37.83
2019-02-23T02:53:54.864Z,39
2019-02-23T02:59:49.883Z,40.66
2019-02-23T03:05:44.917Z,42.42
2019-02-23T03:11:39.916Z,39.65
2019-02-23T03:17:34.886Z,39.76
2019-02-23T03:23:29.929Z,38.55
2019-02-23T03:29:24.892Z,39.77
2019-02-23T03:35:19.892Z,37.08
2019-02-23T03:41:14.945Z,38.87
2019-02-23T03:47:09.927Z,37.96
2019-02-23T03:53:04.906Z,39.22
2019-02-23T03:58:59.951Z,32.85
2019-02-23T04:04:54.926Z,29.18
2019-02-23T04:10:49.952Z,22.68
2019-02-23T04:16:44.939Z,20.75
2019-02-23T04:22:39.958Z,12.95
2019-02-23T04:28:34.991Z,9.81
2019-02-23T04:34:29.958Z,8.92
2019-02-23T04:40:24.991Z,8.25
2019-02-23T04:46:20.054Z,7.13
2019-02-23T04:52:14.971Z,6.1
2019-02-23T04:58:09.989Z,5.17
2019-02-23T05:04:04.970Z,4.05
2019-02-23T05:09:59.992Z,4.51
2019-02-23T05:15:54.977Z,4.06
2019-02-23T05:21:50.002Z,3.55
2019-02-23T05:27:44.996Z,2.8
2019-02-23T05:33:40.014Z,2.75
2019-02-23T05:39:35.060Z,3.21
2019-02-23T05:45:30.037Z,3.47
2019-02-23T05:51:25.018Z,3.96
2019-02-23T05:57:20.015Z,2.92
2019-02-23T06:03:15.030Z,3.29
2019-02-23T06:09:10.028Z,3.2
2019-02-23T06:15:05.039Z,3.12
2019-02-23T06:21:00.065Z,3.2
2019-02-23T06:26:55.085Z,3.25
2019-02-23T06:32:50.083Z,3.26
2019-02-23T06:38:45.058Z,2.94
2019-02-23T06:44:40.058Z,2.52
2019-02-23T06:50:35.057Z,3.34
2019-02-23T06:56:30.115Z,2.73
2019-02-23T07:02:25.094Z,3.5
2019-02-23T07:08:20.076Z,3.26
2019-02-23T07:14:15.122Z,2.75
2019-02-23T07:20:10.108Z,2.89
2019-02-23T07:26:05.100Z,2.96
2019-02-23T07:32:00.113Z,3.24
2019-02-23T07:37:55.093Z,2.64
2019-02-23T07:43:50.138Z,2.87
2019-02-23T07:49:45.130Z,2.8
2019-02-23T07:55:40.150Z,3.1
2019-02-23T08:01:35.141Z,3.26
2019-02-23T08:07:30.151Z,2.47
2019-02-23T08:13:25.171Z,2.4
2019-02-23T08:19:20.131Z,2.35
2019-02-23T08:25:15.175Z,2.52
2019-02-23T08:31:10.148Z,2.51
2019-02-23T08:37:05.165Z,2.82
2019-02-23T08:43:00.198Z,2.27
2019-02-23T08:48:55.176Z,2.17
2019-02-23T08:54:50.187Z,1.9
2019-02-23T09:00:45.187Z,2.29
2019-02-23T09:06:40.200Z,2
2019-02-23T09:12:35.175Z,1.65
2019-02-23T09:18:30.299Z,2.33
2019-02-23T09:24:25.209Z,2.11
2019-02-23T09:30:20.266Z,2.15
2019-02-23T09:36:15.217Z,2.29
2019-02-23T09:42:10.216Z,2.2
2019-02-23T09:48:05.229Z,2.3
2019-02-23T09:54:00.232Z,1.56
2019-02-23T09:59:55.250Z,2.19
2019-02-23T10:05:50.242Z,1.57
2019-02-23T10:11:45.263Z,2.12
2019-02-23T10:17:40.266Z,2.47
2019-02-23T10:23:35.269Z,2.6
2019-02-23T10:29:30.281Z,1.57
2019-02-23T10:35:25.270Z,2.5
2019-02-23T10:41:20.267Z,2.54
2019-02-23T10:47:15.268Z,2.33
2019-02-23T10:53:10.292Z,2.52
2019-02-23T10:59:05.284Z,3.03
2019-02-23T11:05:00.321Z,2.96
2019-02-23T11:10:55.297Z,2.26
2019-02-23T11:16:50.344Z,2.59
2019-02-23T11:18:12.809Z,3.38
2019-02-23T11:24:07.795Z,2.37
2019-02-23T11:30:02.800Z,2.04
2019-02-23T11:35:57.791Z,2.32
2019-02-23T11:41:52.819Z,2.87
2019-02-23T11:47:47.814Z,2.2
2019-02-23T11:53:42.821Z,2.26
2019-02-23T11:59:37.813Z,2.09
2019-02-23T12:05:32.841Z,2.4
2019-02-23T12:11:27.812Z,1.74
2019-02-23T12:17:22.823Z,2.18
2019-02-23T12:23:17.860Z,2.2
2019-02-23T12:29:12.839Z,1.63
2019-02-23T12:35:07.850Z,1.88
2019-02-23T12:41:02.835Z,1.73
2019-02-23T12:46:57.920Z,2
2019-02-23T12:52:52.865Z,1.61
2019-02-23T12:58:48.730Z,1.65
2019-02-23T13:04:42.912Z,1.63
2019-02-23T13:10:37.887Z,2.22
2019-02-23T13:16:32.902Z,1.4
2019-02-23T13:22:27.898Z,2.09
2019-02-23T13:28:22.935Z,1.47
2019-02-23T13:34:17.942Z,1.44
2019-02-23T13:40:12.914Z,2.27
2019-02-23T13:46:07.901Z,1.7
2019-02-23T13:52:02.908Z,1.5
2019-02-23T13:57:57.931Z,1.61
2019-02-23T14:03:52.934Z,2.32
2019-02-23T14:09:47.939Z,1.32
2019-02-23T14:15:42.963Z,1.11
2019-02-23T14:21:37.948Z,1.37
2019-02-23T14:27:32.970Z,1.33
2019-02-23T14:33:27.990Z,1.62
2019-02-23T14:39:23.002Z,1.66
2019-02-23T14:45:18.008Z,1.43
2019-02-23T14:51:12.975Z,1.58
2019-02-23T14:57:08.019Z,1.39
2019-02-23T15:03:03.013Z,1.64
2019-02-23T15:08:58.046Z,1.46
2019-02-23T15:14:53.004Z,1.59
2019-02-23T15:20:48.046Z,1.53
2019-02-23T15:26:43.058Z,1.75
2019-02-23T15:32:38.011Z,1.73
2019-02-23T15:38:33.004Z,1.96
2019-02-23T15:44:28.047Z,1.22
2019-02-23T15:50:23.061Z,1.67
2019-02-23T15:56:18.084Z,1.45
2019-02-23T16:02:13.040Z,1.51
2019-02-23T16:08:08.044Z,1.54
2019-02-23T16:14:03.107Z,1.18
2019-02-23T16:19:58.038Z,1.7
2019-02-23T16:25:53.048Z,1.37
2019-02-23T16:31:48.083Z,1.18
2019-02-23T16:37:43.107Z,1.97
2019-02-23T16:43:38.083Z,1.94
2019-02-23T16:49:33.095Z,2.1
2019-02-23T16:55:28.095Z,1.68
2019-02-23T17:01:23.083Z,1.89
2019-02-23T17:07:18.159Z,1.67
2019-02-23T17:13:13.123Z,1.68
2019-02-23T17:19:08.113Z,1.71
2019-02-23T17:25:03.125Z,2.04
2019-02-23T17:30:58.180Z,1.97
2019-02-23T17:36:53.125Z,1.75
2019-02-23T17:42:48.128Z,2.83
2019-02-23T17:48:43.178Z,2.1
2019-02-23T17:54:38.157Z,2.32
2019-02-23T18:00:33.188Z,2.45
2019-02-23T18:06:28.145Z,2.36
2019-02-23T18:12:23.224Z,1.9
2019-02-23T18:18:18.175Z,2.14
2019-02-23T18:24:13.166Z,2.37
2019-02-23T18:30:10.850Z,2.37
2019-02-23T18:36:03.199Z,2.5
2019-02-23T18:41:58.236Z,2.19
2019-02-23T18:47:53.180Z,3.24
2019-02-23T18:53:48.193Z,2.32
2019-02-23T18:59:43.198Z,3.64
2019-02-23T19:05:38.192Z,2.88
2019-02-23T19:11:33.247Z,2.15
2019-02-23T19:17:28.215Z,2.31
2019-02-23T19:23:23.248Z,2.34
2019-02-23T19:29:18.226Z,2.26
2019-02-23T19:35:13.305Z,2.05
2019-02-23T19:41:08.249Z,1.7
2019-02-23T19:47:03.252Z,2.18
2019-02-23T19:52:58.232Z,2.08
2019-02-23T19:58:53.253Z,7.08
2019-02-23T20:04:48.293Z,2.47
2019-02-23T20:10:43.248Z,2.05
2019-02-23T20:16:38.260Z,5.23
2019-02-23T20:22:33.254Z,2.2
2019-02-23T20:28:28.273Z,2.17
2019-02-23T20:34:23.313Z,1.95
2019-02-23T20:40:18.270Z,2.26
2019-02-23T20:46:13.318Z,2.53
2019-02-23T20:52:08.318Z,3.51
2019-02-23T20:58:03.298Z,2.54
2019-02-23T21:03:58.323Z,3.21
2019-02-23T21:09:53.297Z,1.98
2019-02-23T21:15:48.309Z,2.62
2019-02-23T21:21:43.316Z,2.47
2019-02-23T21:27:38.320Z,2.96
2019-02-23T21:33:33.334Z,2.34
2019-02-23T21:39:28.325Z,2.55
2019-02-23T21:45:23.354Z,2.21
2019-02-23T21:51:18.354Z,2.67
2019-02-23T21:57:21.686Z,3.8
2019-02-23T22:03:08.351Z,2.69
2019-02-23T22:09:03.405Z,2.32
2019-02-23T22:14:58.371Z,3.13
2019-02-23T22:20:53.363Z,2.54
2019-02-23T22:26:48.366Z,3.03
2019-02-23T22:32:43.378Z,2.94
2019-02-23T22:38:38.392Z,2.91
2019-02-23T22:44:33.406Z,3.28
2019-02-23T22:50:28.391Z,2.81
2019-02-23T22:56:23.423Z,3.14
2019-02-23T23:02:18.422Z,3.1
2019-02-23T23:08:13.425Z,2.49
2019-02-23T23:14:08.408Z,2.64
2019-02-23T23:20:03.399Z,3.12
2019-02-23T23:25:58.445Z,3.74
2019-02-23T23:31:53.436Z,2.22
2019-02-23T23:37:48.462Z,2.65
2019-02-23T23:43:43.494Z,2.21
2019-02-23T23:49:38.433Z,2.45
2019-02-23T23:55:33.504Z,2.52
